sensor_id;sensor_type;location;lat;lon;timestamp;P1;durP1;ratioP1;P2;durP2;ratioP2
61471;SDS011;47337;54.068;12.114;2023-07-30T00:00:22;13.45;;;9.13;;
61471;SDS011;47337;54.068;12.114;2023-07-30T00:02:49;13.15;;;9.57;;
61471;SDS011;47337;54.068;12.114;2023-07-30T00:05:17;15.77;;;9.93;;
61471;SDS011;47337;54.068;12.114;2023-07-30T00:07:43;19.75;;;9.90;;
61471;SDS011;47337;54.068;12.114;2023-07-30T00:10:11;16.55;;;9.52;;
61471;SDS011;47337;54.068;12.114;2023-07-30T00:12:39;14.40;;;9.25;;
61471;SDS011;47337;54.068;12.114;2023-07-30T00:15:06;15.38;;;9.10;;
61471;SDS011;47337;54.068;12.114;2023-07-30T00:17:34;20.55;;;10.27;;
61471;SDS011;47337;54.068;12.114;2023-07-30T00:20:02;17.35;;;10.27;;
61471;SDS011;47337;54.068;12.114;2023-07-30T00:22:28;15.38;;;10.38;;
61471;SDS011;47337;54.068;12.114;2023-07-30T00:24:53;18.45;;;10.35;;
61471;SDS011;47337;54.068;12.114;2023-07-30T00:27:21;16.65;;;9.82;;
61471;SDS011;47337;54.068;12.114;2023-07-30T00:29:49;19.73;;;10.00;;
61471;SDS011;47337;54.068;12.114;2023-07-30T00:32:14;19.98;;;10.50;;
61471;SDS011;47337;54.068;12.114;2023-07-30T00:34:41;22.15;;;9.90;;
61471;SDS011;47337;54.068;12.114;2023-07-30T00:37:10;18.25;;;9.98;;
61471;SDS011;47337;54.068;12.114;2023-07-30T00:39:35;19.40;;;10.75;;
61471;SDS011;47337;54.068;12.114;2023-07-30T00:42:00;16.48;;;9.95;;
61471;SDS011;47337;54.068;12.114;2023-07-30T00:44:26;19.98;;;9.93;;
61471;SDS011;47337;54.068;12.114;2023-07-30T00:46:51;13.48;;;9.05;;
61471;SDS011;47337;54.068;12.114;2023-07-30T00:49:18;16.58;;;8.85;;
61471;SDS011;47337;54.068;12.114;2023-07-30T00:51:45;13.95;;;8.57;;
61471;SDS011;47337;54.068;12.114;2023-07-30T00:54:11;17.13;;;9.60;;
61471;SDS011;47337;54.068;12.114;2023-07-30T00:56:37;15.80;;;8.82;;
61471;SDS011;47337;54.068;12.114;2023-07-30T00:59:08;16.80;;;9.18;;
61471;SDS011;47337;54.068;12.114;2023-07-30T01:01:36;15.90;;;9.60;;
61471;SDS011;47337;54.068;12.114;2023-07-30T01:04:11;17.02;;;9.73;;
61471;SDS011;47337;54.068;12.114;2023-07-30T01:06:39;16.75;;;9.48;;
61471;SDS011;47337;54.068;12.114;2023-07-30T01:09:07;13.02;;;9.05;;
61471;SDS011;47337;54.068;12.114;2023-07-30T01:11:33;17.92;;;10.48;;
61471;SDS011;47337;54.068;12.114;2023-07-30T01:14:01;18.20;;;8.80;;
61471;SDS011;47337;54.068;12.114;2023-07-30T01:16:31;19.33;;;10.02;;
61471;SDS011;47337;54.068;12.114;2023-07-30T01:18:56;15.20;;;8.93;;
61471;SDS011;47337;54.068;12.114;2023-07-30T01:21:24;18.92;;;9.90;;
61471;SDS011;47337;54.068;12.114;2023-07-30T01:23:49;18.25;;;10.40;;
61471;SDS011;47337;54.068;12.114;2023-07-30T01:26:18;20.77;;;10.68;;
61471;SDS011;47337;54.068;12.114;2023-07-30T01:28:48;21.37;;;10.77;;
61471;SDS011;47337;54.068;12.114;2023-07-30T01:31:16;25.10;;;11.45;;
61471;SDS011;47337;54.068;12.114;2023-07-30T01:33:52;19.77;;;10.57;;
61471;SDS011;47337;54.068;12.114;2023-07-30T01:36:20;21.40;;;10.52;;
61471;SDS011;47337;54.068;12.114;2023-07-30T01:38:46;21.50;;;10.63;;
61471;SDS011;47337;54.068;12.114;2023-07-30T01:41:13;21.30;;;10.77;;
61471;SDS011;47337;54.068;12.114;2023-07-30T01:43:38;22.40;;;10.15;;
61471;SDS011;47337;54.068;12.114;2023-07-30T01:46:04;23.75;;;10.85;;
61471;SDS011;47337;54.068;12.114;2023-07-30T01:48:29;24.23;;;10.43;;
61471;SDS011;47337;54.068;12.114;2023-07-30T01:50:55;21.10;;;10.60;;
61471;SDS011;47337;54.068;12.114;2023-07-30T01:53:20;20.17;;;10.63;;
61471;SDS011;47337;54.068;12.114;2023-07-30T01:55:45;23.73;;;11.18;;
61471;SDS011;47337;54.068;12.114;2023-07-30T01:58:14;20.90;;;10.52;;
61471;SDS011;47337;54.068;12.114;2023-07-30T02:00:42;24.20;;;11.95;;
61471;SDS011;47337;54.068;12.114;2023-07-30T02:03:09;25.65;;;11.40;;
61471;SDS011;47337;54.068;12.114;2023-07-30T02:05:35;24.13;;;11.93;;
61471;SDS011;47337;54.068;12.114;2023-07-30T02:08:00;30.13;;;11.90;;
61471;SDS011;47337;54.068;12.114;2023-07-30T02:10:26;24.63;;;11.93;;
61471;SDS011;47337;54.068;12.114;2023-07-30T02:12:54;27.23;;;12.13;;
61471;SDS011;47337;54.068;12.114;2023-07-30T02:15:19;24.05;;;10.57;;
61471;SDS011;47337;54.068;12.114;2023-07-30T02:17:45;26.48;;;11.70;;
61471;SDS011;47337;54.068;12.114;2023-07-30T02:20:10;22.88;;;11.40;;
61471;SDS011;47337;54.068;12.114;2023-07-30T02:22:35;24.92;;;11.38;;
61471;SDS011;47337;54.068;12.114;2023-07-30T02:25:01;23.23;;;11.68;;
61471;SDS011;47337;54.068;12.114;2023-07-30T02:27:26;22.10;;;11.00;;
61471;SDS011;47337;54.068;12.114;2023-07-30T02:29:51;28.13;;;11.52;;
61471;SDS011;47337;54.068;12.114;2023-07-30T02:32:17;25.48;;;10.77;;
61471;SDS011;47337;54.068;12.114;2023-07-30T02:34:44;27.58;;;11.77;;
61471;SDS011;47337;54.068;12.114;2023-07-30T02:37:12;27.27;;;11.25;;
61471;SDS011;47337;54.068;12.114;2023-07-30T02:39:40;20.70;;;10.40;;
61471;SDS011;47337;54.068;12.114;2023-07-30T02:42:08;22.13;;;11.63;;
61471;SDS011;47337;54.068;12.114;2023-07-30T02:44:35;20.23;;;10.88;;
61471;SDS011;47337;54.068;12.114;2023-07-30T02:47:01;27.60;;;11.75;;
61471;SDS011;47337;54.068;12.114;2023-07-30T02:49:26;26.95;;;10.82;;
61471;SDS011;47337;54.068;12.114;2023-07-30T02:51:52;24.17;;;11.18;;
61471;SDS011;47337;54.068;12.114;2023-07-30T02:54:17;21.92;;;10.98;;
61471;SDS011;47337;54.068;12.114;2023-07-30T02:56:47;22.08;;;10.50;;
61471;SDS011;47337;54.068;12.114;2023-07-30T02:59:12;24.80;;;11.43;;
61471;SDS011;47337;54.068;12.114;2023-07-30T03:01:40;21.50;;;10.50;;
61471;SDS011;47337;54.068;12.114;2023-07-30T03:04:06;32.53;;;12.13;;
61471;SDS011;47337;54.068;12.114;2023-07-30T03:06:31;32.55;;;11.75;;
61471;SDS011;47337;54.068;12.114;2023-07-30T03:08:59;24.55;;;10.57;;
61471;SDS011;47337;54.068;12.114;2023-07-30T03:11:24;24.55;;;11.55;;
61471;SDS011;47337;54.068;12.114;2023-07-30T03:13:50;24.23;;;11.45;;
61471;SDS011;47337;54.068;12.114;2023-07-30T03:16:17;21.35;;;10.48;;
61471;SDS011;47337;54.068;12.114;2023-07-30T03:18:43;26.63;;;12.00;;
61471;SDS011;47337;54.068;12.114;2023-07-30T03:21:08;22.45;;;11.30;;
61471;SDS011;47337;54.068;12.114;2023-07-30T03:23:33;25.23;;;12.15;;
61471;SDS011;47337;54.068;12.114;2023-07-30T03:25:59;23.50;;;11.43;;
61471;SDS011;47337;54.068;12.114;2023-07-30T03:28:25;26.00;;;12.25;;
61471;SDS011;47337;54.068;12.114;2023-07-30T03:30:51;24.90;;;12.32;;
61471;SDS011;47337;54.068;12.114;2023-07-30T03:33:17;25.13;;;12.05;;
61471;SDS011;47337;54.068;12.114;2023-07-30T03:35:43;29.38;;;12.25;;
61471;SDS011;47337;54.068;12.114;2023-07-30T03:38:08;24.95;;;11.40;;
61471;SDS011;47337;54.068;12.114;2023-07-30T03:40:33;21.60;;;11.25;;
61471;SDS011;47337;54.068;12.114;2023-07-30T03:42:59;26.00;;;11.93;;
61471;SDS011;47337;54.068;12.114;2023-07-30T03:45:24;24.38;;;12.15;;
61471;SDS011;47337;54.068;12.114;2023-07-30T03:47:50;30.75;;;11.63;;
61471;SDS011;47337;54.068;12.114;2023-07-30T03:50:15;23.05;;;11.50;;
61471;SDS011;47337;54.068;12.114;2023-07-30T03:52:40;19.40;;;10.25;;
61471;SDS011;47337;54.068;12.114;2023-07-30T03:55:06;24.13;;;11.60;;
61471;SDS011;47337;54.068;12.114;2023-07-30T03:57:31;26.30;;;12.02;;
61471;SDS011;47337;54.068;12.114;2023-07-30T03:59:59;24.05;;;11.77;;
61471;SDS011;47337;54.068;12.114;2023-07-30T04:02:28;24.75;;;12.65;;
61471;SDS011;47337;54.068;12.114;2023-07-30T04:04:53;23.10;;;11.52;;
61471;SDS011;47337;54.068;12.114;2023-07-30T04:07:18;25.05;;;12.80;;
61471;SDS011;47337;54.068;12.114;2023-07-30T04:09:44;21.88;;;12.00;;
61471;SDS011;47337;54.068;12.114;2023-07-30T04:12:09;25.25;;;11.20;;
61471;SDS011;47337;54.068;12.114;2023-07-30T04:14:35;21.05;;;11.95;;
61471;SDS011;47337;54.068;12.114;2023-07-30T04:17:00;28.48;;;12.95;;
61471;SDS011;47337;54.068;12.114;2023-07-30T04:19:26;23.13;;;12.00;;
61471;SDS011;47337;54.068;12.114;2023-07-30T04:21:51;23.05;;;11.75;;
61471;SDS011;47337;54.068;12.114;2023-07-30T04:24:16;22.80;;;12.60;;
61471;SDS011;47337;54.068;12.114;2023-07-30T04:26:42;25.50;;;12.10;;
61471;SDS011;47337;54.068;12.114;2023-07-30T04:29:10;26.98;;;13.20;;
61471;SDS011;47337;54.068;12.114;2023-07-30T04:31:35;30.17;;;13.88;;
61471;SDS011;47337;54.068;12.114;2023-07-30T04:34:01;24.85;;;12.48;;
61471;SDS011;47337;54.068;12.114;2023-07-30T04:36:31;29.77;;;14.85;;
61471;SDS011;47337;54.068;12.114;2023-07-30T04:38:56;27.88;;;12.90;;
61471;SDS011;47337;54.068;12.114;2023-07-30T04:41:22;29.02;;;13.40;;
61471;SDS011;47337;54.068;12.114;2023-07-30T04:43:47;26.10;;;13.25;;
61471;SDS011;47337;54.068;12.114;2023-07-30T04:46:12;30.80;;;13.10;;
61471;SDS011;47337;54.068;12.114;2023-07-30T04:48:38;24.42;;;13.10;;
61471;SDS011;47337;54.068;12.114;2023-07-30T04:51:03;24.13;;;12.80;;
61471;SDS011;47337;54.068;12.114;2023-07-30T04:53:28;25.48;;;14.20;;
61471;SDS011;47337;54.068;12.114;2023-07-30T04:55:55;19.65;;;13.00;;
61471;SDS011;47337;54.068;12.114;2023-07-30T04:58:23;21.50;;;11.65;;
61471;SDS011;47337;54.068;12.114;2023-07-30T05:00:49;19.02;;;11.57;;
61471;SDS011;47337;54.068;12.114;2023-07-30T05:03:14;21.65;;;11.77;;
61471;SDS011;47337;54.068;12.114;2023-07-30T05:05:40;18.65;;;11.13;;
61471;SDS011;47337;54.068;12.114;2023-07-30T05:08:06;17.60;;;11.10;;
61471;SDS011;47337;54.068;12.114;2023-07-30T05:10:34;17.42;;;9.80;;
61471;SDS011;47337;54.068;12.114;2023-07-30T05:13:04;14.88;;;9.85;;
61471;SDS011;47337;54.068;12.114;2023-07-30T05:15:29;18.05;;;10.38;;
61471;SDS011;47337;54.068;12.114;2023-07-30T05:17:55;12.80;;;9.13;;
61471;SDS011;47337;54.068;12.114;2023-07-30T05:20:20;15.60;;;10.18;;
61471;SDS011;47337;54.068;12.114;2023-07-30T05:22:45;12.13;;;8.93;;
61471;SDS011;47337;54.068;12.114;2023-07-30T05:25:13;13.20;;;8.90;;
61471;SDS011;47337;54.068;12.114;2023-07-30T05:27:38;11.15;;;8.48;;
61471;SDS011;47337;54.068;12.114;2023-07-30T05:30:04;11.90;;;7.47;;
61471;SDS011;47337;54.068;12.114;2023-07-30T05:32:30;9.85;;;7.55;;
61471;SDS011;47337;54.068;12.114;2023-07-30T05:34:58;9.93;;;7.00;;
61471;SDS011;47337;54.068;12.114;2023-07-30T05:37:26;10.32;;;6.97;;
61471;SDS011;47337;54.068;12.114;2023-07-30T05:39:52;7.43;;;5.82;;
61471;SDS011;47337;54.068;12.114;2023-07-30T05:42:20;8.82;;;5.72;;
61471;SDS011;47337;54.068;12.114;2023-07-30T05:44:45;8.15;;;5.93;;
61471;SDS011;47337;54.068;12.114;2023-07-30T05:47:10;7.10;;;5.90;;
61471;SDS011;47337;54.068;12.114;2023-07-30T05:49:36;7.38;;;5.78;;
61471;SDS011;47337;54.068;12.114;2023-07-30T05:52:01;6.10;;;5.40;;
61471;SDS011;47337;54.068;12.114;2023-07-30T05:54:27;7.75;;;5.53;;
61471;SDS011;47337;54.068;12.114;2023-07-30T05:56:52;8.07;;;6.07;;
61471;SDS011;47337;54.068;12.114;2023-07-30T05:59:18;7.63;;;6.65;;
61471;SDS011;47337;54.068;12.114;2023-07-30T06:01:44;7.05;;;5.78;;
61471;SDS011;47337;54.068;12.114;2023-07-30T06:04:12;6.63;;;6.03;;
61471;SDS011;47337;54.068;12.114;2023-07-30T06:06:38;8.52;;;6.88;;
61471;SDS011;47337;54.068;12.114;2023-07-30T06:09:03;9.15;;;6.70;;
61471;SDS011;47337;54.068;12.114;2023-07-30T06:11:29;9.63;;;6.03;;
61471;SDS011;47337;54.068;12.114;2023-07-30T06:13:54;8.52;;;6.45;;
61471;SDS011;47337;54.068;12.114;2023-07-30T06:16:19;6.32;;;4.82;;
61471;SDS011;47337;54.068;12.114;2023-07-30T06:18:47;6.07;;;4.78;;
61471;SDS011;47337;54.068;12.114;2023-07-30T06:21:13;5.72;;;4.45;;
61471;SDS011;47337;54.068;12.114;2023-07-30T06:23:38;7.43;;;4.90;;
61471;SDS011;47337;54.068;12.114;2023-07-30T06:26:04;4.25;;;3.85;;
61471;SDS011;47337;54.068;12.114;2023-07-30T06:28:29;7.10;;;4.38;;
61471;SDS011;47337;54.068;12.114;2023-07-30T06:30:55;6.45;;;4.13;;
61471;SDS011;47337;54.068;12.114;2023-07-30T06:33:20;7.25;;;4.53;;
61471;SDS011;47337;54.068;12.114;2023-07-30T06:35:45;5.57;;;3.72;;
61471;SDS011;47337;54.068;12.114;2023-07-30T06:38:11;4.38;;;3.90;;
61471;SDS011;47337;54.068;12.114;2023-07-30T06:40:36;5.15;;;4.00;;
61471;SDS011;47337;54.068;12.114;2023-07-30T06:43:04;4.70;;;4.07;;
61471;SDS011;47337;54.068;12.114;2023-07-30T06:45:29;5.13;;;3.30;;
61471;SDS011;47337;54.068;12.114;2023-07-30T06:47:55;3.88;;;3.30;;
61471;SDS011;47337;54.068;12.114;2023-07-30T06:50:20;3.88;;;2.90;;
61471;SDS011;47337;54.068;12.114;2023-07-30T06:52:48;3.97;;;3.30;;
61471;SDS011;47337;54.068;12.114;2023-07-30T06:55:13;6.43;;;3.25;;
61471;SDS011;47337;54.068;12.114;2023-07-30T06:57:39;3.92;;;3.08;;
61471;SDS011;47337;54.068;12.114;2023-07-30T07:00:06;4.10;;;3.28;;
61471;SDS011;47337;54.068;12.114;2023-07-30T07:02:32;4.55;;;3.50;;
61471;SDS011;47337;54.068;12.114;2023-07-30T07:04:58;4.20;;;3.33;;
61471;SDS011;47337;54.068;12.114;2023-07-30T07:07:25;3.22;;;2.92;;
61471;SDS011;47337;54.068;12.114;2023-07-30T07:09:53;3.30;;;3.00;;
61471;SDS011;47337;54.068;12.114;2023-07-30T07:12:21;3.80;;;3.40;;
61471;SDS011;47337;54.068;12.114;2023-07-30T07:14:49;3.55;;;3.25;;
61471;SDS011;47337;54.068;12.114;2023-07-30T07:17:15;4.38;;;3.55;;
61471;SDS011;47337;54.068;12.114;2023-07-30T07:19:42;3.70;;;3.40;;
61471;SDS011;47337;54.068;12.114;2023-07-30T07:22:08;6.35;;;4.60;;
61471;SDS011;47337;54.068;12.114;2023-07-30T07:24:33;8.80;;;5.28;;
61471;SDS011;47337;54.068;12.114;2023-07-30T07:26:59;6.05;;;4.90;;
61471;SDS011;47337;54.068;12.114;2023-07-30T07:29:24;8.73;;;6.45;;
61471;SDS011;47337;54.068;12.114;2023-07-30T07:31:52;8.10;;;6.32;;
61471;SDS011;47337;54.068;12.114;2023-07-30T07:34:18;8.95;;;7.13;;
61471;SDS011;47337;54.068;12.114;2023-07-30T07:36:43;9.05;;;6.85;;
61471;SDS011;47337;54.068;12.114;2023-07-30T07:39:11;8.80;;;5.55;;
61471;SDS011;47337;54.068;12.114;2023-07-30T07:41:39;6.72;;;5.50;;
61471;SDS011;47337;54.068;12.114;2023-07-30T07:44:04;7.45;;;5.45;;
61471;SDS011;47337;54.068;12.114;2023-07-30T07:46:30;6.00;;;5.30;;
61471;SDS011;47337;54.068;12.114;2023-07-30T07:48:55;6.18;;;5.40;;
61471;SDS011;47337;54.068;12.114;2023-07-30T07:51:21;6.15;;;5.45;;
61471;SDS011;47337;54.068;12.114;2023-07-30T07:53:46;5.85;;;4.53;;
61471;SDS011;47337;54.068;12.114;2023-07-30T07:56:11;5.70;;;5.15;;
61471;SDS011;47337;54.068;12.114;2023-07-30T07:58:39;5.95;;;5.32;;
61471;SDS011;47337;54.068;12.114;2023-07-30T08:01:08;7.32;;;5.07;;
61471;SDS011;47337;54.068;12.114;2023-07-30T08:03:33;5.80;;;4.22;;
61471;SDS011;47337;54.068;12.114;2023-07-30T08:05:59;5.70;;;4.70;;
61471;SDS011;47337;54.068;12.114;2023-07-30T08:08:27;5.20;;;4.25;;
61471;SDS011;47337;54.068;12.114;2023-07-30T08:10:55;4.88;;;4.00;;
61471;SDS011;47337;54.068;12.114;2023-07-30T08:13:20;4.93;;;3.72;;
61471;SDS011;47337;54.068;12.114;2023-07-30T08:15:46;3.47;;;3.17;;
61471;SDS011;47337;54.068;12.114;2023-07-30T08:18:11;5.20;;;3.08;;
61471;SDS011;47337;54.068;12.114;2023-07-30T08:20:37;4.65;;;3.28;;
61471;SDS011;47337;54.068;12.114;2023-07-30T08:23:03;4.30;;;3.35;;
61471;SDS011;47337;54.068;12.114;2023-07-30T08:25:28;4.13;;;2.72;;
61471;SDS011;47337;54.068;12.114;2023-07-30T08:27:54;4.90;;;3.00;;
61471;SDS011;47337;54.068;12.114;2023-07-30T08:30:22;5.07;;;3.28;;
61471;SDS011;47337;54.068;12.114;2023-07-30T08:32:50;3.95;;;2.40;;
61471;SDS011;47337;54.068;12.114;2023-07-30T08:35:18;2.38;;;2.13;;
61471;SDS011;47337;54.068;12.114;2023-07-30T08:37:43;5.18;;;2.58;;
61471;SDS011;47337;54.068;12.114;2023-07-30T08:40:08;4.90;;;2.70;;
61471;SDS011;47337;54.068;12.114;2023-07-30T08:42:35;3.28;;;2.60;;
61471;SDS011;47337;54.068;12.114;2023-07-30T08:45:00;3.42;;;2.72;;
61471;SDS011;47337;54.068;12.114;2023-07-30T08:47:33;4.78;;;3.22;;
61471;SDS011;47337;54.068;12.114;2023-07-30T08:50:01;3.20;;;2.90;;
61471;SDS011;47337;54.068;12.114;2023-07-30T08:52:27;5.82;;;2.90;;
61471;SDS011;47337;54.068;12.114;2023-07-30T08:54:54;5.22;;;2.60;;
61471;SDS011;47337;54.068;12.114;2023-07-30T08:57:22;3.60;;;2.53;;
61471;SDS011;47337;54.068;12.114;2023-07-30T08:59:53;5.82;;;2.80;;
61471;SDS011;47337;54.068;12.114;2023-07-30T09:05:06;4.50;;;2.53;;
61471;SDS011;47337;54.068;12.114;2023-07-30T09:07:32;3.35;;;2.58;;
61471;SDS011;47337;54.068;12.114;2023-07-30T09:09:57;3.53;;;2.28;;
61471;SDS011;47337;54.068;12.114;2023-07-30T09:12:28;4.78;;;2.40;;
61471;SDS011;47337;54.068;12.114;2023-07-30T09:14:57;4.60;;;2.42;;
61471;SDS011;47337;54.068;12.114;2023-07-30T09:17:25;3.45;;;2.28;;
61471;SDS011;47337;54.068;12.114;2023-07-30T09:19:51;4.45;;;2.78;;
61471;SDS011;47337;54.068;12.114;2023-07-30T09:22:30;2.25;;;2.03;;
61471;SDS011;47337;54.068;12.114;2023-07-30T09:25:05;4.18;;;2.47;;
61471;SDS011;47337;54.068;12.114;2023-07-30T09:27:31;4.88;;;2.50;;
61471;SDS011;47337;54.068;12.114;2023-07-30T09:30:00;3.72;;;2.67;;
61471;SDS011;47337;54.068;12.114;2023-07-30T09:32:28;3.20;;;2.53;;
61471;SDS011;47337;54.068;12.114;2023-07-30T09:34:55;4.72;;;1.75;;
61471;SDS011;47337;54.068;12.114;2023-07-30T09:37:30;2.45;;;1.85;;
61471;SDS011;47337;54.068;12.114;2023-07-30T09:39:57;4.20;;;2.00;;
61471;SDS011;47337;54.068;12.114;2023-07-30T09:42:30;3.60;;;2.05;;
61471;SDS011;47337;54.068;12.114;2023-07-30T09:44:59;4.05;;;2.25;;
61471;SDS011;47337;54.068;12.114;2023-07-30T09:47:30;4.40;;;2.40;;
61471;SDS011;47337;54.068;12.114;2023-07-30T09:49:55;3.15;;;2.58;;
61471;SDS011;47337;54.068;12.114;2023-07-30T09:52:21;6.53;;;2.53;;
61471;SDS011;47337;54.068;12.114;2023-07-30T09:54:48;4.25;;;2.63;;
61471;SDS011;47337;54.068;12.114;2023-07-30T09:57:15;4.40;;;2.45;;
61471;SDS011;47337;54.068;12.114;2023-07-30T09:59:40;5.32;;;2.63;;
61471;SDS011;47337;54.068;12.114;2023-07-30T10:02:08;5.47;;;2.40;;
61471;SDS011;47337;54.068;12.114;2023-07-30T10:04:36;3.55;;;2.60;;
61471;SDS011;47337;54.068;12.114;2023-07-30T10:09:39;3.95;;;2.08;;
61471;SDS011;47337;54.068;12.114;2023-07-30T10:12:14;5.45;;;1.90;;
61471;SDS011;47337;54.068;12.114;2023-07-30T10:14:45;3.60;;;2.00;;
61471;SDS011;47337;54.068;12.114;2023-07-30T10:17:11;4.53;;;2.10;;
61471;SDS011;47337;54.068;12.114;2023-07-30T10:19:37;3.28;;;2.30;;
61471;SDS011;47337;54.068;12.114;2023-07-30T10:24:42;3.08;;;1.98;;
61471;SDS011;47337;54.068;12.114;2023-07-30T10:27:24;2.70;;;2.10;;
61471;SDS011;47337;54.068;12.114;2023-07-30T10:35:41;8.60;;;2.28;;
61471;SDS011;47337;54.068;12.114;2023-07-30T10:38:18;2.50;;;1.40;;
61471;SDS011;47337;54.068;12.114;2023-07-30T10:43:46;3.90;;;1.77;;
61471;SDS011;47337;54.068;12.114;2023-07-30T10:46:13;4.38;;;2.00;;
61471;SDS011;47337;54.068;12.114;2023-07-30T10:48:40;5.35;;;1.83;;
61471;SDS011;47337;54.068;12.114;2023-07-30T10:51:12;3.58;;;1.70;;
61471;SDS011;47337;54.068;12.114;2023-07-30T10:53:47;3.15;;;1.60;;
61471;SDS011;47337;54.068;12.114;2023-07-30T10:56:15;4.63;;;1.75;;
61471;SDS011;47337;54.068;12.114;2023-07-30T10:58:48;4.20;;;1.65;;
61471;SDS011;47337;54.068;12.114;2023-07-30T11:01:17;4.85;;;1.70;;
61471;SDS011;47337;54.068;12.114;2023-07-30T11:03:42;3.33;;;1.52;;
61471;SDS011;47337;54.068;12.114;2023-07-30T11:06:08;4.20;;;1.65;;
61471;SDS011;47337;54.068;12.114;2023-07-30T11:10:59;2.72;;;1.42;;
61471;SDS011;47337;54.068;12.114;2023-07-30T11:13:25;4.68;;;1.80;;
61471;SDS011;47337;54.068;12.114;2023-07-30T11:15:50;6.15;;;1.80;;
61471;SDS011;47337;54.068;12.114;2023-07-30T11:18:20;2.78;;;1.20;;
61471;SDS011;47337;54.068;12.114;2023-07-30T11:20:48;2.53;;;1.40;;
61471;SDS011;47337;54.068;12.114;2023-07-30T11:25:47;3.47;;;1.60;;
61471;SDS011;47337;54.068;12.114;2023-07-30T11:28:14;4.78;;;1.60;;
61471;SDS011;47337;54.068;12.114;2023-07-30T11:30:40;2.05;;;1.20;;
61471;SDS011;47337;54.068;12.114;2023-07-30T11:33:08;5.60;;;1.30;;
61471;SDS011;47337;54.068;12.114;2023-07-30T11:35:46;2.47;;;1.40;;
61471;SDS011;47337;54.068;12.114;2023-07-30T11:38:12;3.42;;;1.60;;
61471;SDS011;47337;54.068;12.114;2023-07-30T11:40:38;3.47;;;1.40;;
61471;SDS011;47337;54.068;12.114;2023-07-30T11:43:06;2.20;;;1.52;;
61471;SDS011;47337;54.068;12.114;2023-07-30T11:45:32;3.60;;;1.42;;
61471;SDS011;47337;54.068;12.114;2023-07-30T11:48:07;2.55;;;1.60;;
61471;SDS011;47337;54.068;12.114;2023-07-30T11:50:47;4.15;;;1.60;;
61471;SDS011;47337;54.068;12.114;2023-07-30T11:53:14;3.55;;;1.55;;
61471;SDS011;47337;54.068;12.114;2023-07-30T11:55:43;2.97;;;1.50;;
61471;SDS011;47337;54.068;12.114;2023-07-30T11:58:10;3.92;;;1.40;;
61471;SDS011;47337;54.068;12.114;2023-07-30T12:00:38;2.60;;;1.45;;
61471;SDS011;47337;54.068;12.114;2023-07-30T12:03:09;2.63;;;1.58;;
61471;SDS011;47337;54.068;12.114;2023-07-30T12:05:39;3.78;;;1.85;;
61471;SDS011;47337;54.068;12.114;2023-07-30T12:08:05;4.03;;;1.70;;
61471;SDS011;47337;54.068;12.114;2023-07-30T12:10:46;3.35;;;1.60;;
61471;SDS011;47337;54.068;12.114;2023-07-30T12:13:18;3.60;;;1.50;;
61471;SDS011;47337;54.068;12.114;2023-07-30T12:15:50;2.13;;;1.40;;
61471;SDS011;47337;54.068;12.114;2023-07-30T12:18:17;3.35;;;1.80;;
61471;SDS011;47337;54.068;12.114;2023-07-30T12:20:45;4.70;;;1.60;;
61471;SDS011;47337;54.068;12.114;2023-07-30T12:23:12;2.30;;;1.10;;
61471;SDS011;47337;54.068;12.114;2023-07-30T12:25:37;2.38;;;1.33;;
61471;SDS011;47337;54.068;12.114;2023-07-30T12:28:06;3.78;;;1.60;;
61471;SDS011;47337;54.068;12.114;2023-07-30T12:30:32;3.47;;;1.30;;
61471;SDS011;47337;54.068;12.114;2023-07-30T12:33:01;3.25;;;1.40;;
61471;SDS011;47337;54.068;12.114;2023-07-30T12:35:28;5.75;;;1.92;;
61471;SDS011;47337;54.068;12.114;2023-07-30T12:37:53;18.33;;;1.90;;
61471;SDS011;47337;54.068;12.114;2023-07-30T12:40:19;4.53;;;1.50;;
61471;SDS011;47337;54.068;12.114;2023-07-30T12:42:44;6.10;;;1.77;;
61471;SDS011;47337;54.068;12.114;2023-07-30T12:45:09;2.42;;;1.30;;
61471;SDS011;47337;54.068;12.114;2023-07-30T12:47:35;3.00;;;1.42;;
61471;SDS011;47337;54.068;12.114;2023-07-30T12:50:05;4.35;;;1.65;;
61471;SDS011;47337;54.068;12.114;2023-07-30T12:52:31;4.22;;;1.70;;
61471;SDS011;47337;54.068;12.114;2023-07-30T12:55:00;5.35;;;1.60;;
61471;SDS011;47337;54.068;12.114;2023-07-30T12:57:29;3.85;;;1.80;;
61471;SDS011;47337;54.068;12.114;2023-07-30T12:59:54;3.20;;;1.55;;
61471;SDS011;47337;54.068;12.114;2023-07-30T13:02:20;4.85;;;1.80;;
61471;SDS011;47337;54.068;12.114;2023-07-30T13:04:45;4.13;;;1.50;;
61471;SDS011;47337;54.068;12.114;2023-07-30T13:07:10;3.75;;;1.70;;
61471;SDS011;47337;54.068;12.114;2023-07-30T13:09:36;3.38;;;1.60;;
61471;SDS011;47337;54.068;12.114;2023-07-30T13:12:01;2.70;;;1.58;;
61471;SDS011;47337;54.068;12.114;2023-07-30T13:14:27;4.28;;;1.75;;
61471;SDS011;47337;54.068;12.114;2023-07-30T13:16:52;4.15;;;1.60;;
61471;SDS011;47337;54.068;12.114;2023-07-30T13:19:18;5.65;;;1.65;;
61471;SDS011;47337;54.068;12.114;2023-07-30T13:21:44;5.80;;;1.95;;
61471;SDS011;47337;54.068;12.114;2023-07-30T13:24:09;4.93;;;1.67;;
61471;SDS011;47337;54.068;12.114;2023-07-30T13:26:35;3.08;;;1.42;;
61471;SDS011;47337;54.068;12.114;2023-07-30T13:29:00;4.65;;;1.52;;
61471;SDS011;47337;54.068;12.114;2023-07-30T13:31:26;4.45;;;1.70;;
61471;SDS011;47337;54.068;12.114;2023-07-30T13:33:51;3.80;;;1.88;;
61471;SDS011;47337;54.068;12.114;2023-07-30T13:36:19;4.97;;;1.73;;
61471;SDS011;47337;54.068;12.114;2023-07-30T13:38:45;4.13;;;1.38;;
61471;SDS011;47337;54.068;12.114;2023-07-30T13:41:10;5.60;;;1.90;;
61471;SDS011;47337;54.068;12.114;2023-07-30T13:43:38;3.05;;;1.50;;
61471;SDS011;47337;54.068;12.114;2023-07-30T13:46:04;4.07;;;1.50;;
61471;SDS011;47337;54.068;12.114;2023-07-30T13:48:29;5.70;;;1.65;;
61471;SDS011;47337;54.068;12.114;2023-07-30T13:50:55;3.10;;;1.50;;
61471;SDS011;47337;54.068;12.114;2023-07-30T13:53:20;3.15;;;1.58;;
61471;SDS011;47337;54.068;12.114;2023-07-30T13:55:46;4.82;;;1.60;;
61471;SDS011;47337;54.068;12.114;2023-07-30T13:58:11;3.38;;;1.55;;
61471;SDS011;47337;54.068;12.114;2023-07-30T14:00:37;6.07;;;1.95;;
61471;SDS011;47337;54.068;12.114;2023-07-30T14:03:05;5.78;;;2.13;;
61471;SDS011;47337;54.068;12.114;2023-07-30T14:05:31;4.72;;;1.80;;
61471;SDS011;47337;54.068;12.114;2023-07-30T14:07:56;6.68;;;1.88;;
61471;SDS011;47337;54.068;12.114;2023-07-30T14:10:25;4.57;;;1.90;;
61471;SDS011;47337;54.068;12.114;2023-07-30T14:12:52;4.25;;;1.80;;
61471;SDS011;47337;54.068;12.114;2023-07-30T14:15:20;4.20;;;1.92;;
61471;SDS011;47337;54.068;12.114;2023-07-30T14:17:46;5.05;;;1.70;;
61471;SDS011;47337;54.068;12.114;2023-07-30T14:20:11;2.28;;;1.42;;
61471;SDS011;47337;54.068;12.114;2023-07-30T14:22:37;6.00;;;1.67;;
61471;SDS011;47337;54.068;12.114;2023-07-30T14:25:02;5.68;;;1.70;;
61471;SDS011;47337;54.068;12.114;2023-07-30T14:27:30;3.60;;;1.60;;
61471;SDS011;47337;54.068;12.114;2023-07-30T14:29:58;5.75;;;1.48;;
61471;SDS011;47337;54.068;12.114;2023-07-30T14:32:24;5.88;;;1.77;;
61471;SDS011;47337;54.068;12.114;2023-07-30T14:34:51;4.68;;;1.90;;
61471;SDS011;47337;54.068;12.114;2023-07-30T14:37:17;4.68;;;1.73;;
61471;SDS011;47337;54.068;12.114;2023-07-30T14:39:47;6.78;;;1.48;;
61471;SDS011;47337;54.068;12.114;2023-07-30T14:42:12;2.95;;;1.63;;
61471;SDS011;47337;54.068;12.114;2023-07-30T14:44:40;3.83;;;1.20;;